Time;durP1;ratioP1;P1;durP2;ratioP2;P2;SDS_P1;SDS_P2;PMS_P1;PMS_P2;Temp;Humidity;BMP_temperature;BMP_pressure;BME280_temperature;BME280_humidity;BME280_pressure;Samples;Min_cycle;Max_cycle;Signal;HPM_P1;HPM_P2
2023/05/28 00:01:50;;;;;;;14.13;5.53;;;16.80;99.90;;;;;;5037208;28;20112;-78
2023/05/28 00:04:16;;;;;;;9.63;6.40;;;16.80;99.90;;;;;;5047914;28;20099;-79
2023/05/28 00:06:43;;;;;;;10.35;5.97;;;16.80;99.90;;;;;;5036624;28;20057;-79
2023/05/28 00:09:10;;;;;;;8.35;5.38;;;16.70;99.90;;;;;;5036818;28;20041;-78
2023/05/28 00:11:37;;;;;;;9.82;6.10;;;16.70;99.90;;;;;;5036942;28;20142;-79
2023/05/28 00:14:03;;;;;;;10.85;5.45;;;16.70;99.90;;;;;;5037910;28;20099;-78
2023/05/28 00:16:30;;;;;;;12.25;7.32;;;16.70;99.90;;;;;;5036474;28;20517;-78
2023/05/28 00:18:57;;;;;;;10.57;5.35;;;16.60;99.90;;;;;;5042757;28;20543;-79
2023/05/28 00:21:26;;;;;;;8.40;5.70;;;16.60;99.90;;;;;;5036739;28;20509;-79
2023/05/28 00:23:52;;;;;;;12.40;7.53;;;16.50;99.90;;;;;;5036432;28;20054;-78
2023/05/28 00:26:19;;;;;;;12.15;5.53;;;16.50;99.90;;;;;;5036680;28;20076;-79
2023/05/28 00:28:46;;;;;;;10.30;6.15;;;16.50;99.90;;;;;;5036213;28;20128;-79
2023/05/28 00:31:12;;;;;;;13.90;6.65;;;16.40;99.90;;;;;;5037179;28;20076;-79
2023/05/28 00:33:39;;;;;;;13.77;5.82;;;16.40;99.90;;;;;;5037012;28;20041;-79
2023/05/28 00:36:07;;;;;;;14.23;7.70;;;16.40;99.90;;;;;;5034428;28;20044;-79
2023/05/28 00:38:33;;;;;;;13.20;6.13;;;16.40;99.90;;;;;;5036159;28;20068;-79
2023/05/28 00:41:00;;;;;;;11.40;6.00;;;16.30;99.90;;;;;;5036641;28;20124;-79
2023/05/28 00:43:27;;;;;;;10.05;5.97;;;16.30;99.90;;;;;;5036583;28;20068;-79
2023/05/28 00:45:58;;;;;;;8.13;5.32;;;16.30;99.90;;;;;;5036077;28;20145;-79
2023/05/28 00:48:25;;;;;;;13.18;5.88;;;16.30;99.90;;;;;;5036165;28;20072;-78
2023/05/28 00:50:53;;;;;;;16.42;6.55;;;16.30;99.90;;;;;;5054910;23;20077;-78
2023/05/28 00:53:21;;;;;;;10.60;6.30;;;16.20;99.90;;;;;;5023823;28;20046;-78
2023/05/28 00:55:48;;;;;;;10.50;6.40;;;16.20;99.90;;;;;;5026630;28;20092;-78
2023/05/28 00:58:16;;;;;;;10.63;6.18;;;16.20;99.90;;;;;;5021462;28;20129;-77
2023/05/28 01:00:43;;;;;;;10.40;6.55;;;16.20;99.90;;;;;;5020852;28;20547;-78
2023/05/28 01:03:10;;;;;;;10.48;5.80;;;16.10;99.90;;;;;;5012817;28;20089;-78
2023/05/28 01:05:37;;;;;;;9.82;6.13;;;16.10;99.90;;;;;;5019249;28;20111;-78
2023/05/28 01:08:09;;;;;;;11.68;5.35;;;16.10;99.90;;;;;;5024985;28;20046;-78
2023/05/28 01:10:36;;;;;;;9.57;5.88;;;16.10;99.90;;;;;;5030947;28;20041;-76
2023/05/28 01:13:06;;;;;;;17.95;6.75;;;16.10;99.90;;;;;;5029836;28;20129;-76
2023/05/28 01:15:34;;;;;;;11.65;5.88;;;16.00;99.90;;;;;;5024133;28;20100;-77
2023/05/28 01:18:01;;;;;;;8.98;5.85;;;16.00;99.90;;;;;;5021189;28;20042;-77
2023/05/28 01:20:29;;;;;;;13.73;6.15;;;16.00;99.90;;;;;;5023187;28;20049;-77
2023/05/28 01:23:20;;;;;;;11.30;6.18;;;15.90;99.90;;;;;;5027836;28;20501;-78
2023/05/28 01:25:56;;;;;;;9.32;5.40;;;15.90;99.90;;;;;;5033346;28;20054;-77
2023/05/28 01:28:23;;;;;;;9.40;6.03;;;15.90;99.90;;;;;;5030638;28;20037;-79
2023/05/28 01:30:50;;;;;;;9.13;5.80;;;15.80;99.90;;;;;;5001506;28;20052;-78
2023/05/28 01:33:18;;;;;;;9.43;5.82;;;15.80;99.90;;;;;;5015994;28;20046;-78
2023/05/28 01:35:44;;;;;;;10.80;6.50;;;15.80;99.90;;;;;;5020039;28;20041;-77
2023/05/28 01:38:15;;;;;;;11.32;6.28;;;15.80;99.90;;;;;;5026590;28;20056;-78
2023/05/28 01:40:46;;;;;;;11.20;5.88;;;15.70;99.90;;;;;;5021254;28;20045;-78
2023/05/28 01:43:13;;;;;;;8.63;5.78;;;15.70;99.90;;;;;;5021025;28;20084;-78
2023/05/28 01:45:41;;;;;;;12.15;6.32;;;15.70;99.90;;;;;;5019827;28;20136;-77
2023/05/28 01:48:08;;;;;;;12.27;5.55;;;15.70;99.90;;;;;;5015551;28;20592;-78
2023/05/28 01:50:35;;;;;;;10.02;5.78;;;15.70;99.90;;;;;;4998931;28;20081;-76
2023/05/28 01:53:01;;;;;;;9.95;5.85;;;15.60;99.90;;;;;;5010110;28;20092;-77
2023/05/28 01:55:28;;;;;;;13.63;6.63;;;15.60;99.90;;;;;;5024347;28;20065;-77
2023/05/28 01:57:55;;;;;;;8.52;5.65;;;15.60;99.90;;;;;;5002828;28;20442;-79
2023/05/28 02:00:22;;;;;;;8.88;5.50;;;15.60;99.90;;;;;;5018172;28;20041;-79
2023/05/28 02:02:49;;;;;;;12.52;5.53;;;15.50;99.90;;;;;;5016750;28;20049;-79
2023/05/28 02:05:16;;;;;;;11.82;6.35;;;15.50;99.90;;;;;;5019296;28;20097;-79
2023/05/28 02:07:43;;;;;;;9.07;5.32;;;15.50;99.90;;;;;;5011702;28;20536;-79
2023/05/28 02:10:10;;;;;;;7.85;6.05;;;15.50;99.90;;;;;;5026555;28;20092;-78
2023/05/28 02:12:36;;;;;;;10.80;6.15;;;15.40;99.90;;;;;;5006168;28;20037;-77
2023/05/28 02:15:04;;;;;;;10.82;7.00;;;15.40;99.90;;;;;;5004913;28;20049;-79
2023/05/28 02:17:31;;;;;;;7.97;5.55;;;15.40;99.90;;;;;;5000744;28;20069;-78
2023/05/28 02:19:58;;;;;;;10.65;6.57;;;15.30;99.90;;;;;;5016098;28;20053;-78
2023/05/28 02:22:25;;;;;;;13.48;6.50;;;15.30;99.90;;;;;;5030197;28;20136;-80
2023/05/28 02:24:51;;;;;;;13.00;6.63;;;15.30;99.90;;;;;;5024444;28;20062;-79
2023/05/28 02:27:19;;;;;;;12.35;5.85;;;15.30;99.90;;;;;;5003689;28;20042;-79
2023/05/28 02:29:47;;;;;;;9.93;5.95;;;15.20;99.90;;;;;;5021654;28;20402;-79
2023/05/28 02:32:13;;;;;;;9.77;5.47;;;15.20;99.90;;;;;;4998144;28;20093;-78
2023/05/28 02:34:40;;;;;;;8.60;5.65;;;15.20;99.90;;;;;;5016253;28;20053;-78
2023/05/28 02:37:07;;;;;;;12.07;6.65;;;15.10;99.90;;;;;;5026214;28;20125;-78
2023/05/28 02:39:34;;;;;;;10.38;5.40;;;15.10;99.90;;;;;;5027967;28;20053;-78
2023/05/28 02:42:00;;;;;;;12.18;6.10;;;15.10;99.90;;;;;;5020866;28;20147;-78
2023/05/28 02:44:27;;;;;;;11.63;6.03;;;15.10;99.90;;;;;;5022210;28;20046;-79
2023/05/28 02:46:54;;;;;;;12.23;5.97;;;15.10;99.90;;;;;;5017968;28;20049;-79
2023/05/28 02:49:20;;;;;;;15.00;6.00;;;15.00;99.90;;;;;;5016086;28;20125;-79
2023/05/28 02:51:47;;;;;;;9.60;6.20;;;15.00;99.90;;;;;;5027681;28;20567;-79
2023/05/28 02:54:14;;;;;;;12.32;6.38;;;15.00;99.90;;;;;;5010053;28;20047;-79
2023/05/28 02:56:41;;;;;;;10.57;5.70;;;15.00;99.90;;;;;;5017387;28;20132;-79
2023/05/28 02:59:07;;;;;;;9.95;6.38;;;14.90;99.90;;;;;;5021400;28;20248;-78
2023/05/28 03:01:35;;;;;;;9.80;5.70;;;14.90;99.90;;;;;;5019703;28;20612;-79
2023/05/28 03:04:02;;;;;;;12.80;6.47;;;14.90;99.90;;;;;;5014145;28;20054;-78
2023/05/28 03:06:29;;;;;;;11.65;5.70;;;14.80;99.90;;;;;;5009987;28;20413;-78
2023/05/28 03:08:55;;;;;;;8.65;5.57;;;14.80;99.90;;;;;;5009684;28;20104;-78
2023/05/28 03:11:22;;;;;;;11.05;6.22;;;14.80;99.90;;;;;;5003078;28;20043;-79
2023/05/28 03:13:49;;;;;;;10.00;5.80;;;14.80;99.90;;;;;;5019728;28;20073;-78
2023/05/28 03:16:16;;;;;;;11.68;6.18;;;14.80;99.90;;;;;;5025271;28;20041;-77
2023/05/28 03:18:43;;;;;;;13.27;5.65;;;14.80;99.90;;;;;;5023693;28;20050;-77
2023/05/28 03:21:09;;;;;;;11.88;6.05;;;14.70;99.90;;;;;;5035391;28;20045;-79
2023/05/28 03:23:36;;;;;;;16.08;6.93;;;14.70;99.90;;;;;;5036048;28;20049;-79
2023/05/28 03:26:03;;;;;;;11.63;5.80;;;14.70;99.90;;;;;;5026120;28;20584;-79
2023/05/28 03:28:30;;;;;;;9.10;6.10;;;14.70;99.90;;;;;;5026962;28;20085;-78
2023/05/28 03:30:57;;;;;;;11.70;6.10;;;14.60;99.90;;;;;;5009363;28;20496;-78
2023/05/28 03:33:24;;;;;;;12.95;5.63;;;14.60;99.90;;;;;;5020426;28;20038;-79
2023/05/28 03:35:51;;;;;;;11.48;6.07;;;14.60;99.90;;;;;;5029307;28;20085;-79
2023/05/28 03:38:18;;;;;;;14.52;6.35;;;14.60;99.90;;;;;;5015489;28;20124;-78
2023/05/28 03:40:45;;;;;;;9.77;5.63;;;14.60;99.90;;;;;;5023561;28;20093;-78
2023/05/28 03:43:11;;;;;;;9.35;5.20;;;14.60;99.90;;;;;;5024129;28;20080;-79
2023/05/28 03:45:38;;;;;;;10.50;5.70;;;14.60;99.90;;;;;;5022982;28;20133;-79
2023/05/28 03:48:06;;;;;;;10.63;5.65;;;14.50;99.90;;;;;;5019694;28;20072;-78
2023/05/28 03:50:33;;;;;;;13.07;6.60;;;14.50;99.90;;;;;;5027231;28;20993;-78
2023/05/28 03:52:59;;;;;;;10.73;5.43;;;14.50;99.90;;;;;;5031848;28;20433;-78
2023/05/28 03:55:26;;;;;;;10.38;5.38;;;14.50;99.90;;;;;;5028292;28;20084;-78
2023/05/28 03:57:53;;;;;;;10.52;5.57;;;14.50;99.90;;;;;;5021896;28;20124;-78
2023/05/28 04:00:19;;;;;;;9.35;5.45;;;14.50;99.90;;;;;;5023347;28;20434;-79
2023/05/28 04:02:46;;;;;;;13.85;5.90;;;14.40;99.90;;;;;;5019836;28;20148;-78
2023/05/28 04:05:13;;;;;;;9.80;5.57;;;14.40;99.90;;;;;;5021821;28;20524;-78
2023/05/28 04:07:40;;;;;;;11.75;5.57;;;14.50;99.90;;;;;;5031308;28;20112;-78
2023/05/28 04:10:07;;;;;;;9.20;6.25;;;14.50;99.90;;;;;;5010068;28;20778;-78
2023/05/28 04:12:34;;;;;;;10.57;6.25;;;14.40;99.90;;;;;;5024703;28;20540;-79
2023/05/28 04:15:02;;;;;;;10.82;5.70;;;14.40;99.90;;;;;;5022644;28;20073;-79
2023/05/28 04:17:29;;;;;;;10.63;5.85;;;14.40;99.90;;;;;;5018310;28;20038;-79
2023/05/28 04:19:57;;;;;;;11.05;5.50;;;14.40;99.90;;;;;;5026129;28;20053;-78
2023/05/28 04:22:24;;;;;;;10.95;5.60;;;14.50;99.90;;;;;;5013599;28;20052;-79
2023/05/28 04:24:55;;;;;;;9.93;5.43;;;14.50;99.90;;;;;;5024704;28;20059;-79
2023/05/28 04:27:23;;;;;;;8.55;4.88;;;14.50;99.90;;;;;;5023909;28;20493;-79
2023/05/28 04:29:52;;;;;;;10.23;5.65;;;14.50;99.90;;;;;;5023655;28;20050;-79
2023/05/28 04:32:19;;;;;;;9.35;5.32;;;14.50;99.90;;;;;;5023937;28;20100;-78
2023/05/28 04:34:47;;;;;;;8.43;5.47;;;14.50;99.90;;;;;;5032413;28;20079;-78
2023/05/28 04:37:15;;;;;;;9.45;6.10;;;14.50;99.90;;;;;;5012740;28;20046;-78
2023/05/28 04:39:41;;;;;;;9.13;5.70;;;14.50;99.90;;;;;;5027286;28;20132;-79
2023/05/28 04:42:13;;;;;;;13.55;5.28;;;14.50;99.90;;;;;;5025632;28;20076;-76
2023/05/28 04:44:40;;;;;;;10.80;6.25;;;14.50;99.90;;;;;;5028708;28;20108;-77
2023/05/28 04:47:08;;;;;;;9.90;5.45;;;14.60;99.90;;;;;;5016811;28;20050;-77
2023/05/28 04:49:35;;;;;;;9.95;5.57;;;14.60;99.90;;;;;;5029307;28;20456;-76
2023/05/28 04:52:02;;;;;;;11.40;5.75;;;14.70;99.90;;;;;;5035802;28;20113;-76
2023/05/28 04:54:28;;;;;;;9.40;5.70;;;14.70;99.90;;;;;;5030465;28;20716;-76
2023/05/28 04:56:55;;;;;;;9.10;5.30;;;14.80;99.90;;;;;;5020028;28;20461;-78
2023/05/28 04:59:22;;;;;;;13.30;6.00;;;14.90;99.90;;;;;;5021843;28;20107;-77
2023/05/28 05:01:48;;;;;;;14.55;5.32;;;15.00;99.90;;;;;;5019153;28;20141;-78
2023/05/28 05:04:15;;;;;;;9.52;5.07;;;15.10;99.90;;;;;;5017942;28;20049;-79
2023/05/28 05:06:42;;;;;;;9.80;5.57;;;15.20;99.90;;;;;;5028931;28;20160;-78
2023/05/28 05:09:08;;;;;;;12.90;6.00;;;15.30;99.90;;;;;;5028427;28;20493;-79
2023/05/28 05:11:35;;;;;;;11.10;6.15;;;15.40;99.90;;;;;;5022935;28;20114;-78
2023/05/28 05:14:02;;;;;;;13.38;6.55;;;15.50;99.90;;;;;;5023015;28;20050;-78
2023/05/28 05:16:29;;;;;;;11.18;5.40;;;15.60;99.90;;;;;;5019827;28;20588;-78
2023/05/28 05:18:56;;;;;;;10.43;5.50;;;15.70;99.90;;;;;;5020548;28;20109;-79
2023/05/28 05:21:22;;;;;;;10.00;5.68;;;15.80;99.90;;;;;;5028964;28;20469;-78
2023/05/28 05:23:49;;;;;;;10.65;5.68;;;15.90;99.90;;;;;;5028223;28;20508;-80
2023/05/28 05:26:17;;;;;;;11.40;5.53;;;16.00;99.90;;;;;;5022864;28;20133;-78
2023/05/28 05:28:44;;;;;;;12.95;5.55;;;16.00;99.90;;;;;;5021398;28;20140;-78
2023/05/28 05:31:13;;;;;;;11.13;5.47;;;16.10;99.90;;;;;;5017564;28;20135;-79
2023/05/28 05:33:41;;;;;;;11.73;5.45;;;16.20;99.90;;;;;;5019601;28;20398;-79
2023/05/28 05:36:08;;;;;;;7.50;5.40;;;16.20;99.90;;;;;;5003617;28;20109;-78
2023/05/28 05:38:35;;;;;;;10.80;5.45;;;16.30;99.90;;;;;;5028046;28;20046;-79
2023/05/28 05:41:02;;;;;;;8.25;4.93;;;16.30;99.90;;;;;;5024111;28;20061;-78
2023/05/28 05:43:29;;;;;;;9.25;5.72;;;16.30;99.90;;;;;;5004731;28;20049;-79
2023/05/28 05:45:56;;;;;;;8.32;6.07;;;16.30;99.90;;;;;;5019516;28;20081;-78
2023/05/28 05:48:27;;;;;;;12.77;5.65;;;16.30;99.90;;;;;;5012751;28;20073;-78
2023/05/28 05:50:55;;;;;;;13.85;5.88;;;16.40;99.90;;;;;;5009778;28;20041;-78
2023/05/28 05:53:22;;;;;;;10.05;5.10;;;16.40;99.90;;;;;;5011400;28;20042;-80
2023/05/28 05:55:49;;;;;;;22.25;8.35;;;16.40;99.90;;;;;;5026526;28;20528;-79
2023/05/28 05:58:16;;;;;;;10.48;6.10;;;16.40;99.90;;;;;;5022608;28;20046;-78
2023/05/28 06:00:44;;;;;;;11.52;5.93;;;16.40;99.90;;;;;;5017337;28;20072;-79
2023/05/28 06:03:11;;;;;;;12.02;5.85;;;16.40;99.90;;;;;;5016384;28;20046;-79
2023/05/28 06:05:37;;;;;;;10.75;5.45;;;16.40;99.90;;;;;;5029435;28;20053;-78
2023/05/28 06:08:05;;;;;;;13.27;5.68;;;16.50;99.90;;;;;;5028748;28;20137;-79
2023/05/28 06:10:34;;;;;;;10.90;5.97;;;16.50;99.90;;;;;;5022619;28;20045;-79
2023/05/28 06:13:01;;;;;;;10.63;5.88;;;16.50;99.90;;;;;;5020010;28;20054;-78
2023/05/28 06:15:28;;;;;;;13.35;6.07;;;16.50;99.90;;;;;;5019431;28;20050;-78
2023/05/28 06:17:55;;;;;;;12.27;5.40;;;16.50;99.90;;;;;;5019736;28;20053;-79
2023/05/28 06:20:22;;;;;;;13.57;5.80;;;16.60;99.90;;;;;;5026388;28;20046;-79
2023/05/28 06:22:50;;;;;;;12.45;5.32;;;16.60;99.90;;;;;;5036487;28;20050;-78
2023/05/28 06:25:18;;;;;;;9.32;5.63;;;16.60;99.90;;;;;;5033204;28;20081;-79
2023/05/28 06:27:44;;;;;;;17.90;6.63;;;16.50;99.90;;;;;;5025597;28;20100;-80
2023/05/28 06:30:11;;;;;;;12.25;6.43;;;16.50;99.90;;;;;;5023600;28;20125;-79
2023/05/28 06:32:38;;;;;;;11.80;6.40;;;16.50;99.90;;;;;;5017684;28;20073;-80
2023/05/28 06:35:05;;;;;;;10.52;6.20;;;16.50;99.90;;;;;;5024784;28;20041;-80
2023/05/28 06:37:32;;;;;;;12.60;5.78;;;16.50;99.90;;;;;;5029984;28;20607;-79
2023/05/28 06:39:59;;;;;;;13.50;6.03;;;16.40;99.90;;;;;;5028250;28;20053;-78
2023/05/28 06:42:26;;;;;;;9.70;5.35;;;16.40;99.90;;;;;;5027114;28;20045;-80
2023/05/28 06:44:52;;;;;;;13.27;5.57;;;16.40;99.90;;;;;;5019955;28;20077;-78
2023/05/28 06:47:19;;;;;;;12.82;6.18;;;16.40;99.90;;;;;;5023121;28;20061;-79
2023/05/28 06:49:46;;;;;;;12.55;5.60;;;16.40;99.90;;;;;;5016844;28;20077;-77
2023/05/28 06:52:12;;;;;;;12.55;5.70;;;16.40;99.90;;;;;;5029192;28;20115;-77
2023/05/28 06:54:39;;;;;;;14.65;5.75;;;16.40;99.90;;;;;;5028826;28;20050;-79
2023/05/28 06:57:06;;;;;;;9.15;5.25;;;16.50;99.90;;;;;;5027370;28;20464;-80
2023/05/28 06:59:33;;;;;;;14.45;6.15;;;16.50;99.90;;;;;;5033385;28;20053;-79
2023/05/28 07:01:59;;;;;;;12.98;6.35;;;16.60;99.90;;;;;;5020537;28;20052;-79
2023/05/28 07:04:26;;;;;;;12.00;5.60;;;16.60;99.90;;;;;;5028829;28;20109;-79
2023/05/28 07:06:56;;;;;;;15.10;6.47;;;16.60;99.90;;;;;;5006756;28;20049;-78
2023/05/28 07:09:23;;;;;;;14.38;6.03;;;16.70;99.90;;;;;;5031060;28;20111;-80
2023/05/28 07:11:50;;;;;;;12.68;5.78;;;16.70;99.90;;;;;;5022580;28;20052;-79
2023/05/28 07:14:17;;;;;;;15.73;7.28;;;16.70;99.90;;;;;;5026735;28;20076;-79
2023/05/28 07:16:43;;;;;;;13.70;5.88;;;16.80;99.90;;;;;;5020556;28;20089;-78
2023/05/28 07:19:10;;;;;;;11.18;5.55;;;16.80;99.90;;;;;;5033506;28;20046;-79
2023/05/28 07:21:38;;;;;;;13.27;5.80;;;16.90;99.90;;;;;;5026333;28;20049;-80
2023/05/28 07:24:05;;;;;;;14.35;6.35;;;16.90;99.90;;;;;;5025478;28;20046;-79
2023/05/28 07:26:33;;;;;;;11.95;6.05;;;16.90;99.90;;;;;;5008950;28;20080;-80
2023/05/28 07:29:00;;;;;;;13.50;6.70;;;16.90;99.90;;;;;;5028530;28;20099;-78
2023/05/28 07:31:28;;;;;;;15.30;6.32;;;17.00;99.90;;;;;;5017938;28;20560;-79
2023/05/28 07:33:55;;;;;;;12.93;6.60;;;17.00;99.90;;;;;;5022617;28;20084;-79
2023/05/28 07:36:21;;;;;;;11.60;5.60;;;17.00;99.90;;;;;;5019882;28;20092;-79
2023/05/28 07:38:48;;;;;;;15.32;6.30;;;17.10;99.90;;;;;;5025671;28;20081;-79
2023/05/28 07:41:15;;;;;;;14.00;6.70;;;17.10;99.90;;;;;;5022528;28;20053;-79
2023/05/28 07:43:42;;;;;;;16.35;6.38;;;17.10;99.90;;;;;;5028358;28;20513;-79
2023/05/28 07:46:08;;;;;;;11.52;6.07;;;17.10;99.90;;;;;;5019287;28;20073;-80
2023/05/28 07:48:35;;;;;;;12.30;6.53;;;17.10;99.90;;;;;;5006681;28;20056;-80
2023/05/28 07:51:04;;;;;;;11.88;6.70;;;17.10;99.90;;;;;;5017852;28;20133;-79
2023/05/28 07:53:31;;;;;;;13.57;6.85;;;17.20;99.90;;;;;;5031081;28;20576;-78
2023/05/28 07:55:57;;;;;;;15.63;7.18;;;17.20;99.90;;;;;;5034717;28;20050;-78
2023/05/28 07:58:24;;;;;;;16.30;7.82;;;17.20;99.90;;;;;;5026548;28;20125;-79
2023/05/28 08:00:51;;;;;;;13.63;7.10;;;17.30;99.90;;;;;;5018296;28;20077;-81
2023/05/28 08:03:17;;;;;;;12.82;7.47;;;17.30;99.90;;;;;;5018839;28;20525;-78
2023/05/28 08:05:45;;;;;;;13.68;7.28;;;17.30;99.90;;;;;;5029826;28;20049;-78
2023/05/28 08:08:11;;;;;;;13.20;6.72;;;17.40;99.90;;;;;;5025141;28;20058;-76
2023/05/28 08:10:38;;;;;;;14.15;7.45;;;17.40;99.90;;;;;;5018174;28;20045;-75
2023/05/28 08:13:05;;;;;;;16.67;6.88;;;17.50;99.90;;;;;;5020494;28;20548;-76
2023/05/28 08:15:31;;;;;;;13.18;6.63;;;17.50;99.90;;;;;;5017860;28;20096;-76
2023/05/28 08:17:58;;;;;;;16.92;6.47;;;17.50;99.90;;;;;;5025098;28;20049;-75
2023/05/28 08:20:26;;;;;;;16.98;7.07;;;17.50;99.90;;;;;;5024576;28;20049;-76
2023/05/28 08:22:53;;;;;;;13.13;6.57;;;17.50;99.90;;;;;;5025977;28;20176;-75
2023/05/28 08:25:19;;;;;;;19.23;7.20;;;17.60;99.90;;;;;;5019992;28;20053;-76
2023/05/28 08:27:46;;;;;;;14.50;6.13;;;17.60;99.90;;;;;;5019202;28;20046;-76
2023/05/28 08:30:13;;;;;;;18.40;6.63;;;17.60;99.90;;;;;;5016302;28;20133;-76
2023/05/28 08:32:40;;;;;;;14.68;6.05;;;17.70;99.90;;;;;;5019804;28;20096;-75
2023/05/28 08:35:07;;;;;;;13.45;5.57;;;17.80;99.90;;;;;;5024707;28;20527;-76
2023/05/28 08:37:33;;;;;;;13.02;6.38;;;17.80;99.90;;;;;;5040235;28;20042;-75
2023/05/28 08:40:00;;;;;;;12.65;6.18;;;17.90;99.90;;;;;;5016162;28;20053;-74
2023/05/28 08:42:27;;;;;;;12.82;5.72;;;17.90;99.90;;;;;;5001419;28;20683;-76
2023/05/28 08:44:55;;;;;;;13.30;6.60;;;18.00;99.90;;;;;;5016063;28;20057;-76
2023/05/28 08:47:22;;;;;;;13.73;6.40;;;18.00;99.90;;;;;;5016943;28;20096;-76
2023/05/28 08:49:53;;;;;;;11.95;5.43;;;18.10;99.90;;;;;;5007709;28;20046;-76
2023/05/28 08:52:20;;;;;;;15.95;6.32;;;18.10;99.90;;;;;;5025149;28;20046;-76
2023/05/28 08:54:48;;;;;;;11.13;5.40;;;18.10;99.90;;;;;;5003242;28;20081;-76
2023/05/28 08:57:15;;;;;;;9.23;5.00;;;18.20;99.90;;;;;;5017684;28;20045;-77
2023/05/28 08:59:44;;;;;;;13.13;5.55;;;18.30;99.90;;;;;;5012292;28;20409;-77
2023/05/28 09:02:12;;;;;;;12.70;6.18;;;18.30;99.90;;;;;;5003463;28;20099;-77
2023/05/28 09:04:40;;;;;;;12.77;5.50;;;18.40;99.90;;;;;;5024593;28;20107;-77
2023/05/28 09:07:07;;;;;;;12.50;5.05;;;18.40;99.90;;;;;;5023440;28;20049;-77
2023/05/28 09:09:34;;;;;;;15.48;6.10;;;18.50;99.90;;;;;;5017520;28;20081;-77
2023/05/28 09:12:05;;;;;;;16.73;6.38;;;18.50;99.90;;;;;;5018380;28;20137;-77
2023/05/28 09:14:39;;;;;;;14.90;5.60;;;18.60;99.90;;;;;;5014347;28;20057;-77
2023/05/28 09:17:09;;;;;;;18.83;5.55;;;18.60;99.90;;;;;;5002676;28;20125;-75
2023/05/28 09:19:36;;;;;;;9.63;5.10;;;18.70;99.90;;;;;;5023700;28;20038;-77
2023/05/28 09:22:05;;;;;;;11.93;5.97;;;18.70;99.90;;;;;;5024316;28;20041;-77
2023/05/28 09:24:32;;;;;;;12.10;5.65;;;18.80;99.90;;;;;;5020802;28;20084;-77
2023/05/28 09:27:00;;;;;;;11.73;5.18;;;18.80;99.90;;;;;;5000653;28;20072;-77
2023/05/28 09:29:27;;;;;;;12.95;5.60;;;18.80;99.90;;;;;;5015102;28;20528;-77
2023/05/28 09:31:59;;;;;;;8.82;4.95;;;18.90;99.90;;;;;;5019561;28;20087;-77
2023/05/28 09:34:31;;;;;;;10.57;5.53;;;18.90;99.90;;;;;;5021406;28;20049;-77
2023/05/28 09:37:02;;;;;;;11.80;4.82;;;19.00;99.90;;;;;;5024065;28;20053;-77
2023/05/28 09:39:30;;;;;;;10.35;4.82;;;19.00;99.90;;;;;;5019754;28;20060;-77
2023/05/28 09:42:09;;;;;;;12.50;5.20;;;19.10;99.90;;;;;;5016314;28;20111;-77
2023/05/28 09:44:38;;;;;;;11.35;4.93;;;19.20;99.90;;;;;;4996391;28;20053;-77
2023/05/28 09:47:18;;;;;;;14.45;5.47;;;19.20;99.90;;;;;;5015757;28;20579;-77
2023/05/28 09:49:47;;;;;;;10.00;4.82;;;19.30;99.90;;;;;;5023693;28;20140;-76
2023/05/28 09:52:22;;;;;;;18.98;5.45;;;19.40;99.90;;;;;;5019913;28;20068;-77
2023/05/28 09:54:55;;;;;;;12.27;5.75;;;19.40;99.90;;;;;;5019488;28;20136;-77
2023/05/28 09:57:27;;;;;;;9.98;4.57;;;19.50;99.90;;;;;;5016905;28;20132;-77
2023/05/28 09:59:57;;;;;;;10.43;4.72;;;19.50;99.90;;;;;;5009880;28;20045;-77
2023/05/28 10:02:55;;;;;;;13.27;5.13;;;19.60;99.90;;;;;;5014566;28;20095;-77
2023/05/28 10:05:23;;;;;;;11.63;5.13;;;19.60;99.90;;;;;;4984352;28;20123;-77
2023/05/28 10:07:52;;;;;;;12.07;5.07;;;19.70;99.90;;;;;;5023945;28;20089;-78
2023/05/28 10:10:21;;;;;;;11.90;5.93;;;19.70;99.90;;;;;;5016537;28;20091;-77
2023/05/28 10:12:49;;;;;;;12.52;5.22;;;19.80;99.90;;;;;;5016397;28;20501;-76
2023/05/28 10:15:17;;;;;;;7.97;4.75;;;19.80;99.90;;;;;;5012891;28;20505;-75
2023/05/28 10:17:44;;;;;;;10.73;4.95;;;19.80;99.90;;;;;;5020721;28;20050;-76
2023/05/28 10:20:11;;;;;;;11.70;4.75;;;19.80;99.90;;;;;;5022978;28;20501;-77
2023/05/28 10:22:39;;;;;;;11.70;4.85;;;19.90;99.90;;;;;;5022665;28;20037;-77
2023/05/28 10:25:08;;;;;;;11.60;4.55;;;20.00;99.90;;;;;;5018813;28;20100;-77
2023/05/28 10:27:37;;;;;;;7.30;4.25;;;20.10;99.90;;;;;;5013288;28;20045;-77
2023/05/28 10:30:04;;;;;;;13.60;4.53;;;20.20;99.90;;;;;;5013593;28;20398;-76
2023/05/28 10:32:41;;;;;;;13.75;5.05;;;20.20;99.90;;;;;;5018860;28;20125;-76
2023/05/28 10:35:12;;;;;;;10.18;4.75;;;20.30;99.90;;;;;;5023275;28;20049;-76
2023/05/28 10:37:39;;;;;;;13.93;4.93;;;20.30;99.90;;;;;;5021461;28;20161;-77
2023/05/28 10:40:10;;;;;;;13.02;4.53;;;20.30;99.90;;;;;;5015696;28;20073;-77
2023/05/28 10:42:41;;;;;;;11.23;4.60;;;20.40;99.90;;;;;;5013527;28;20117;-76
2023/05/28 10:45:11;;;;;;;13.00;5.10;;;20.40;99.90;;;;;;5013169;28;20092;-77
2023/05/28 10:47:51;;;;;;;11.85;4.63;;;20.50;99.90;;;;;;5016637;28;20049;-76
2023/05/28 10:50:18;;;;;;;12.68;4.22;;;20.50;99.90;;;;;;5021086;28;20100;-78
2023/05/28 10:53:08;;;;;;;12.60;5.15;;;20.60;99.90;;;;;;5018846;28;20141;-77
2023/05/28 10:55:51;;;;;;;12.48;4.93;;;20.60;99.90;;;;;;5013815;28;20509;-76
2023/05/28 10:58:35;;;;;;;10.15;4.45;;;20.70;99.90;;;;;;5014409;28;20477;-77
2023/05/28 11:01:05;;;;;;;7.93;4.07;;;20.70;99.90;;;;;;4983074;28;20045;-76
2023/05/28 11:03:42;;;;;;;8.45;4.28;;;20.80;99.90;;;;;;5016845;28;20121;-76
2023/05/28 11:06:11;;;;;;;8.02;3.67;;;20.90;99.90;;;;;;5022979;28;20049;-76
2023/05/28 11:08:42;;;;;;;6.68;3.75;;;21.00;99.90;;;;;;5019923;28;20559;-77
2023/05/28 11:11:13;;;;;;;12.15;4.20;;;21.10;99.90;;;;;;5016286;28;20125;-77
2023/05/28 11:13:48;;;;;;;9.77;4.45;;;21.10;99.90;;;;;;5014270;28;20046;-76
2023/05/28 11:16:16;;;;;;;11.95;4.43;;;21.20;99.90;;;;;;5012614;28;20046;-77
2023/05/28 11:19:02;;;;;;;11.48;4.63;;;21.20;99.90;;;;;;5020640;28;20560;-77
2023/05/28 11:21:30;;;;;;;10.23;3.70;;;21.20;99.90;;;;;;5005190;28;20520;-77
2023/05/28 11:24:01;;;;;;;11.75;5.15;;;21.30;99.90;;;;;;5018219;28;20140;-76
2023/05/28 11:26:28;;;;;;;9.27;3.80;;;21.40;99.90;;;;;;5017183;28;20568;-76
2023/05/28 11:28:55;;;;;;;11.52;4.10;;;21.40;99.90;;;;;;5012890;28;20054;-76
2023/05/28 11:31:22;;;;;;;6.07;4.13;;;21.50;99.90;;;;;;5014296;28;20048;-76
2023/05/28 11:33:49;;;;;;;9.88;3.88;;;21.70;99.90;;;;;;5021620;28;20065;-75
2023/05/28 11:36:18;;;;;;;6.68;3.17;;;21.60;99.90;;;;;;5021536;28;20049;-75
2023/05/28 11:38:45;;;;;;;10.55;3.90;;;21.70;99.90;;;;;;5004634;28;20056;-76
2023/05/28 11:41:12;;;;;;;8.50;4.28;;;21.70;99.90;;;;;;5019265;28;20136;-76
2023/05/28 11:43:38;;;;;;;10.55;3.95;;;21.70;99.90;;;;;;4999257;28;20073;-76
2023/05/28 11:46:05;;;;;;;10.55;3.95;;;21.80;99.90;;;;;;5027633;28;20049;-76
2023/05/28 11:48:38;;;;;;;11.95;3.83;;;21.90;99.90;;;;;;5022342;28;20046;-75
2023/05/28 11:51:05;;;;;;;11.98;4.43;;;21.90;99.90;;;;;;5025762;28;20046;-77
2023/05/28 11:53:39;;;;;;;7.90;3.63;;;22.00;99.90;;;;;;5022910;28;20452;-77
2023/05/28 11:56:08;;;;;;;9.57;4.10;;;22.00;99.90;;;;;;5017278;28;20046;-78
2023/05/28 11:58:37;;;;;;;8.20;4.20;;;22.00;99.90;;;;;;4998811;28;20073;-78
2023/05/28 12:01:04;;;;;;;9.32;3.63;;;22.10;99.90;;;;;;5023216;28;20103;-77
2023/05/28 12:03:31;;;;;;;13.52;4.15;;;22.10;99.90;;;;;;5022137;28;20476;-78
2023/05/28 12:05:58;;;;;;;7.53;3.63;;;22.10;99.90;;;;;;5026024;28;20141;-77
2023/05/28 12:08:28;;;;;;;7.07;3.30;;;22.20;99.90;;;;;;5022851;28;20057;-78
2023/05/28 12:11:04;;;;;;;8.13;3.63;;;22.30;99.90;;;;;;5017568;28;20127;-76
2023/05/28 12:13:34;;;;;;;8.32;3.42;;;22.30;99.90;;;;;;5016053;28;20045;-80
2023/05/28 12:16:07;;;;;;;7.07;3.42;;;22.40;99.90;;;;;;5023964;28;20054;-77
2023/05/28 12:18:34;;;;;;;6.25;3.70;;;22.40;99.90;;;;;;5021803;28;20042;-77
2023/05/28 12:21:01;;;;;;;6.63;3.38;;;22.50;99.90;;;;;;5025886;28;20085;-77
2023/05/28 12:23:28;;;;;;;10.02;3.85;;;22.60;99.90;;;;;;5004949;28;20137;-78
2023/05/28 12:25:57;;;;;;;8.05;3.22;;;22.70;99.90;;;;;;5018774;28;20480;-78
2023/05/28 12:28:23;;;;;;;7.90;3.50;;;22.80;99.90;;;;;;5015909;28;20089;-77
2023/05/28 12:30:53;;;;;;;9.95;3.38;;;22.90;99.90;;;;;;5024920;28;20092;-77
2023/05/28 12:33:21;;;;;;;7.13;3.22;;;22.90;99.90;;;;;;5023058;28;20616;-77
2023/05/28 12:35:49;;;;;;;6.30;3.42;;;23.00;99.90;;;;;;5023614;28;20103;-76
2023/05/28 12:38:17;;;;;;;5.63;2.85;;;23.00;99.90;;;;;;5017671;28;20046;-76
2023/05/28 12:40:44;;;;;;;8.68;3.20;;;23.00;99.90;;;;;;5018341;28;20080;-77
2023/05/28 12:43:11;;;;;;;6.63;3.30;;;23.00;99.90;;;;;;5016022;28;20145;-77
2023/05/28 12:45:37;;;;;;;7.70;3.40;;;23.10;99.90;;;;;;5019682;28;20045;-76